createdAt,value
2022-08-05T00:00:13.150Z,7.25
2022-08-05T00:02:43.860Z,7.13
2022-08-05T00:05:27.209Z,8.23
2022-08-05T00:08:06.336Z,7.22
2022-08-05T00:10:52.984Z,9.45
2022-08-05T00:13:20.222Z,10.63
2022-08-05T00:16:06.347Z,9.35
2022-08-05T00:18:35.819Z,6.10
2022-08-05T00:21:06.465Z,7.20
2022-08-05T00:23:46.657Z,6.90
2022-08-05T00:26:20.708Z,7.95
2022-08-05T00:28:49.427Z,6.82
2022-08-05T00:31:16.712Z,8.32
2022-08-05T00:34:56.731Z,9.00
2022-08-05T00:37:11.239Z,9.50
2022-08-05T00:39:57.120Z,8.25
2022-08-05T00:42:32.784Z,8.35
2022-08-05T00:45:00.245Z,8.40
2022-08-05T00:47:53.496Z,9.32
2022-08-05T00:50:14.635Z,7.00
2022-08-05T00:52:42.351Z,8.43
2022-08-05T00:55:12.745Z,8.57
2022-08-05T00:57:58.797Z,10.15
2022-08-05T01:00:27.670Z,7.60
2022-08-05T01:02:55.084Z,9.63
2022-08-05T01:05:22.408Z,6.20
2022-08-05T01:08:40.147Z,6.32
2022-08-05T01:10:57.921Z,6.40
2022-08-05T01:13:57.835Z,8.10
2022-08-05T01:16:27.685Z,8.50
2022-08-05T01:18:57.500Z,7.88
2022-08-05T01:21:25.722Z,11.35
2022-08-05T01:24:14.871Z,32.35
2022-08-05T01:27:00.694Z,10.70
2022-08-05T01:29:47.851Z,8.73
2022-08-05T01:32:19.296Z,6.80
2022-08-05T01:34:48.105Z,8.52
2022-08-05T01:37:24.881Z,10.80
2022-08-05T01:39:54.990Z,7.75
2022-08-05T01:42:27.251Z,10.82
2022-08-05T01:44:56.665Z,6.13
2022-08-05T01:47:39.567Z,6.85
2022-08-05T01:50:15.954Z,9.30
2022-08-05T01:52:50.154Z,5.53
2022-08-05T01:55:18.735Z,8.10
2022-08-05T01:58:11.973Z,7.65
2022-08-05T02:00:37.460Z,7.78
2022-08-05T02:03:07.563Z,9.85
2022-08-05T02:05:53.493Z,11.35
2022-08-05T02:08:29.752Z,12.60
2022-08-05T02:11:00.570Z,10.05
2022-08-05T02:13:53.302Z,11.10
2022-08-05T02:16:35.899Z,12.20
2022-08-05T02:19:16.907Z,10.05
2022-08-05T02:21:49.220Z,11.43
2022-08-05T02:24:19.390Z,13.77
2022-08-05T02:26:54.574Z,9.20
2022-08-05T02:29:26.182Z,14.10
2022-08-05T02:32:10.746Z,11.98
2022-08-05T02:34:38.843Z,11.23
2022-08-05T02:37:09.836Z,11.85
2022-08-05T02:39:38.677Z,11.13
2022-08-05T02:42:09.131Z,11.55
2022-08-05T02:44:38.192Z,10.40
2022-08-05T02:47:06.805Z,16.88
2022-08-05T02:49:37.703Z,11.52
2022-08-05T02:52:11.443Z,14.43
2022-08-05T02:54:42.662Z,11.90
2022-08-05T02:58:19.730Z,11.70
2022-08-05T03:00:06.526Z,8.68
2022-08-05T03:02:37.508Z,13.48
2022-08-05T03:05:05.712Z,11.35
2022-08-05T03:08:00.937Z,10.10
2022-08-05T03:10:22.011Z,9.18
2022-08-05T03:12:52.910Z,12.57
2022-08-05T03:15:21.033Z,9.52
2022-08-05T03:17:53.859Z,14.55
2022-08-05T03:20:22.503Z,11.13
2022-08-05T03:22:51.512Z,13.88
2022-08-05T03:25:33.643Z,9.30
2022-08-05T03:28:08.276Z,12.45
2022-08-05T03:30:36.276Z,15.57
2022-08-05T03:33:04.121Z,11.50
2022-08-05T03:35:33.817Z,13.80
2022-08-05T03:38:07.894Z,14.07
2022-08-05T03:40:35.823Z,9.90
2022-08-05T03:43:59.017Z,12.65
2022-08-05T03:45:57.883Z,12.82
2022-08-05T03:48:26.504Z,10.55
2022-08-05T03:52:38.009Z,10.57
2022-08-05T03:55:53.610Z,12.27
2022-08-05T03:56:58.900Z,12.65
2022-08-05T03:59:47.170Z,18.65
2022-08-05T04:02:37.961Z,14.40
2022-08-05T04:05:13.306Z,18.05
2022-08-05T04:07:57.232Z,9.07
2022-08-05T04:10:27.856Z,11.15
2022-08-05T04:12:56.075Z,10.18
2022-08-05T04:15:26.432Z,12.77
2022-08-05T04:17:59.879Z,8.45
2022-08-05T04:20:27.412Z,13.60
2022-08-05T04:22:54.959Z,10.63
2022-08-05T04:25:56.759Z,11.68
2022-08-05T04:28:12.966Z,12.18
2022-08-05T04:30:40.246Z,16.08
2022-08-05T04:33:10.155Z,12.70
2022-08-05T04:36:10.807Z,8.93
2022-08-05T04:38:39.258Z,11.77
2022-08-05T04:41:09.392Z,11.05
2022-08-05T04:43:37.332Z,10.82
2022-08-05T04:46:05.172Z,8.48
2022-08-05T04:48:32.412Z,10.02
2022-08-05T04:51:03.351Z,11.52
2022-08-05T04:53:39.036Z,11.05
2022-08-05T04:56:32.765Z,7.90
2022-08-05T04:58:56.478Z,11.63
2022-08-05T05:02:06.057Z,11.52
2022-08-05T05:04:10.832Z,9.40
2022-08-05T05:06:40.912Z,9.48
2022-08-05T05:09:14.125Z,7.88
2022-08-05T05:11:54.652Z,9.00
2022-08-05T05:14:31.450Z,12.45
2022-08-05T05:16:58.946Z,11.95
2022-08-05T05:19:27.310Z,10.60
2022-08-05T05:21:55.559Z,8.40
2022-08-05T05:24:22.883Z,10.00
2022-08-05T05:27:10.272Z,9.90
2022-08-05T05:30:03.628Z,9.60
2022-08-05T05:32:24.761Z,7.97
2022-08-05T05:34:53.092Z,8.73
2022-08-05T05:37:20.728Z,7.85
2022-08-05T05:39:56.325Z,5.50
2022-08-05T05:42:23.748Z,9.65
2022-08-05T05:44:51.222Z,5.45
2022-08-05T05:47:22.016Z,7.88
2022-08-05T05:49:56.500Z,7.40
2022-08-05T05:52:28.739Z,8.13
2022-08-05T05:55:02.225Z,5.18
2022-08-05T05:57:42.723Z,7.85
2022-08-05T06:00:20.807Z,8.88
2022-08-05T06:02:55.019Z,7.53
2022-08-05T06:05:22.394Z,6.45
2022-08-05T06:07:57.547Z,9.63
2022-08-05T06:10:29.264Z,9.63
2022-08-05T06:12:56.718Z,7.22
2022-08-05T06:15:24.810Z,7.53
2022-08-05T06:18:11.940Z,6.45
2022-08-05T06:20:39.193Z,8.02
2022-08-05T06:23:06.343Z,8.70
2022-08-05T06:26:12.976Z,5.72
2022-08-05T06:28:21.692Z,6.10
2022-08-05T06:30:49.308Z,6.78
2022-08-05T06:33:19.237Z,5.60
2022-08-05T06:36:03.669Z,5.93
2022-08-05T06:38:35.934Z,7.68
2022-08-05T06:41:04.331Z,6.30
2022-08-05T06:43:59.153Z,6.07
2022-08-05T06:46:18.848Z,6.75
2022-08-05T06:48:55.606Z,6.72
2022-08-05T06:51:30.050Z,9.80
2022-08-05T06:53:58.852Z,7.97
2022-08-05T06:56:27.037Z,7.30
2022-08-05T06:58:54.441Z,7.32
2022-08-05T07:01:22.683Z,6.10
2022-08-05T07:03:50.276Z,6.80
2022-08-05T07:06:17.524Z,7.53
2022-08-05T07:08:51.854Z,5.78
2022-08-05T07:11:22.576Z,6.95
2022-08-05T07:14:20.792Z,7.43
2022-08-05T07:17:59.792Z,7.13
2022-08-05T07:20:32.361Z,8.25
2022-08-05T07:22:38.710Z,7.30
2022-08-05T07:25:23.944Z,7.05
2022-08-05T07:28:02.313Z,5.20
2022-08-05T07:30:34.236Z,6.72
2022-08-05T07:33:09.505Z,6.28
2022-08-05T07:36:04.784Z,7.10
2022-08-05T07:38:33.741Z,6.60
2022-08-05T07:41:35.168Z,6.97
2022-08-05T07:43:56.344Z,8.35
2022-08-05T07:46:25.972Z,7.53
2022-08-05T07:49:03.654Z,7.60
2022-08-05T07:51:40.751Z,6.68
2022-08-05T07:54:15.971Z,6.03
2022-08-05T07:57:02.367Z,7.50
2022-08-05T07:59:39.856Z,8.38
2022-08-05T08:02:16.253Z,5.90
2022-08-05T08:04:48.734Z,6.85
2022-08-05T08:07:18.006Z,5.57
2022-08-05T08:09:45.486Z,6.43
2022-08-05T08:12:37.377Z,6.20
2022-08-05T08:15:04.390Z,7.90
2022-08-05T08:17:32.447Z,6.43
2022-08-05T08:20:21.616Z,4.78
2022-08-05T08:22:57.594Z,7.28
2022-08-05T08:25:26.822Z,9.93
2022-08-05T08:28:18.289Z,5.63
2022-08-05T08:30:47.531Z,5.53
2022-08-05T08:33:16.739Z,8.98
2022-08-05T08:35:53.860Z,7.10
2022-08-05T08:38:35.321Z,7.00
2022-08-05T08:41:05.662Z,9.07
2022-08-05T08:45:22.307Z,7.20
2022-08-05T08:46:22.061Z,5.82
2022-08-05T08:49:07.470Z,6.18
2022-08-05T08:52:05.796Z,7.40
2022-08-05T08:54:27.402Z,7.18
2022-08-05T08:56:56.433Z,8.23
2022-08-05T08:59:27.708Z,5.97
2022-08-05T09:02:01.366Z,5.57
2022-08-05T09:04:30.335Z,5.32
2022-08-05T09:06:58.426Z,6.28
2022-08-05T09:09:34.654Z,8.07
2022-08-05T09:12:13.568Z,6.00
2022-08-05T09:14:58.978Z,6.80
2022-08-05T09:17:40.639Z,6.57
2022-08-05T09:20:11.100Z,7.32
2022-08-05T09:23:05.347Z,7.57
2022-08-05T09:26:00.240Z,4.82
2022-08-05T09:28:24.414Z,10.35
2022-08-05T09:31:22.366Z,6.13
2022-08-05T09:34:01.302Z,7.30
2022-08-05T09:36:54.493Z,6.50
2022-08-05T09:39:27.764Z,5.00
2022-08-05T09:42:17.393Z,5.45
2022-08-05T09:44:51.817Z,6.38
2022-08-05T09:47:23.262Z,5.90
2022-08-05T09:50:01.610Z,6.07
2022-08-05T09:52:36.431Z,4.35
2022-08-05T09:55:56.715Z,4.72
2022-08-05T09:58:00.651Z,4.22
2022-08-05T10:00:30.399Z,6.68
2022-08-05T10:02:59.185Z,6.95
2022-08-05T10:05:27.799Z,5.38
2022-08-05T10:08:36.706Z,5.53
2022-08-05T10:10:50.268Z,6.28
2022-08-05T10:13:43.973Z,4.18
2022-08-05T10:16:41.883Z,7.05
2022-08-05T10:19:23.468Z,5.80
2022-08-05T10:21:58.974Z,5.25
2022-08-05T10:24:27.124Z,6.55
2022-08-05T10:27:00.567Z,10.75
2022-08-05T10:30:06.594Z,5.53
2022-08-05T10:32:53.125Z,5.60
2022-08-05T10:35:07.114Z,5.97
2022-08-05T10:37:40.233Z,6.40
2022-08-05T10:40:19.509Z,3.38
2022-08-05T10:42:48.249Z,4.13
2022-08-05T10:45:23.879Z,6.55
2022-08-05T10:48:29.904Z,9.95
2022-08-05T10:51:05.520Z,6.50
2022-08-05T10:53:55.378Z,6.13
2022-08-05T10:56:25.809Z,4.43
2022-08-05T10:58:56.117Z,4.30
2022-08-05T11:01:55.495Z,7.07
2022-08-05T11:04:17.528Z,6.63
2022-08-05T11:06:57.942Z,4.35
2022-08-05T11:09:45.116Z,6.32
2022-08-05T11:12:25.245Z,5.25
2022-08-05T11:15:20.290Z,6.93
2022-08-05T11:17:58.676Z,3.25
2022-08-05T11:20:39.218Z,12.80
2022-08-05T11:23:33.336Z,4.50
2022-08-05T11:26:11.335Z,5.88
2022-08-05T11:28:39.494Z,7.65
2022-08-05T11:31:07.378Z,6.10
2022-08-05T11:33:46.436Z,4.30
2022-08-05T11:36:33.932Z,6.80
2022-08-05T11:39:02.033Z,4.85
2022-08-05T11:41:57.912Z,3.80
2022-08-05T11:44:53.010Z,6.70
2022-08-05T11:47:13.970Z,3.38
2022-08-05T11:49:49.738Z,5.63
2022-08-05T11:52:29.084Z,5.63
2022-08-05T11:54:58.191Z,3.65
2022-08-05T11:57:30.665Z,2.63
2022-08-05T11:59:58.278Z,4.05
2022-08-05T12:02:33.746Z,4.53
2022-08-05T12:05:06.829Z,3.80
2022-08-05T12:08:08.296Z,5.30
2022-08-05T12:10:43.783Z,3.28
2022-08-05T12:13:16.600Z,5.30
2022-08-05T12:15:49.739Z,4.72
2022-08-05T12:18:20.824Z,9.27
2022-08-05T12:20:51.578Z,5.68
2022-08-05T12:23:18.711Z,6.75
2022-08-05T12:25:56.715Z,4.72
2022-08-05T12:28:39.728Z,6.20
2022-08-05T12:31:07.939Z,3.15
2022-08-05T12:33:36.665Z,5.07
2022-08-05T12:36:08.132Z,2.67
2022-08-05T12:38:37.962Z,2.90
2022-08-05T12:41:13.361Z,5.78
2022-08-05T12:43:55.132Z,4.18
2022-08-05T12:46:28.816Z,5.30
2022-08-05T12:49:15.707Z,5.00
2022-08-05T12:52:13.875Z,3.50
2022-08-05T12:54:34.603Z,6.95
2022-08-05T12:57:03.747Z,4.07
2022-08-05T12:59:46.626Z,4.88
2022-08-05T13:02:30.332Z,4.25
2022-08-05T13:04:58.722Z,5.00
2022-08-05T13:07:55.869Z,5.72
2022-08-05T13:10:19.639Z,5.82
2022-08-05T13:12:57.114Z,5.30
2022-08-05T13:15:35.902Z,10.32
2022-08-05T13:18:12.772Z,4.53
2022-08-05T13:20:47.172Z,3.25
2022-08-05T13:23:14.918Z,5.40
2022-08-05T13:25:52.542Z,3.97
2022-08-05T13:28:26.326Z,3.47
2022-08-05T13:30:53.732Z,3.75
2022-08-05T13:34:25.042Z,5.03
2022-08-05T13:36:09.484Z,5.90
2022-08-05T13:38:38.561Z,6.25
2022-08-05T13:41:09.361Z,8.77
2022-08-05T13:43:45.858Z,8.40
2022-08-05T13:46:37.587Z,4.50
2022-08-05T13:49:10.230Z,5.78
2022-08-05T13:51:41.357Z,4.47
2022-08-05T13:54:13.494Z,5.68
2022-08-05T13:56:45.163Z,7.63
2022-08-05T13:59:19.412Z,6.05
2022-08-05T14:01:57.444Z,4.72
2022-08-05T14:04:51.038Z,7.18
2022-08-05T14:07:55.563Z,6.05
2022-08-05T14:10:11.515Z,5.25
2022-08-05T14:12:38.725Z,7.28
2022-08-05T14:16:05.754Z,4.65
2022-08-05T14:17:55.096Z,5.57
2022-08-05T14:20:27.614Z,5.38
2022-08-05T14:22:55.065Z,6.65
2022-08-05T14:25:28.226Z,6.25
2022-08-05T14:27:55.727Z,5.05
2022-08-05T14:30:23.157Z,5.32
2022-08-05T14:32:53.979Z,6.25
2022-08-05T14:35:22.872Z,6.45
2022-08-05T14:37:55.072Z,7.32
2022-08-05T14:40:24.577Z,4.80
2022-08-05T14:42:52.128Z,5.82
2022-08-05T14:45:19.294Z,5.93
2022-08-05T14:48:05.097Z,6.72
2022-08-05T14:50:39.757Z,6.22
2022-08-05T14:53:08.113Z,5.82
2022-08-05T14:55:39.080Z,5.80
2022-08-05T14:58:10.819Z,5.47
2022-08-05T15:00:58.307Z,5.97
2022-08-05T15:03:33.756Z,5.80
2022-08-05T15:06:07.999Z,6.30
2022-08-05T15:08:59.688Z,6.70
2022-08-05T15:11:50.968Z,6.88
2022-08-05T15:14:33.334Z,6.25
2022-08-05T15:17:03.713Z,7.15
2022-08-05T15:19:31.301Z,6.25
2022-08-05T15:22:01.020Z,7.65
2022-08-05T15:24:28.907Z,6.68
2022-08-05T15:26:57.194Z,7.05
2022-08-05T15:29:30.161Z,7.38
2022-08-05T15:32:03.111Z,7.28
2022-08-05T15:34:33.225Z,7.65
2022-08-05T15:37:06.462Z,7.85
2022-08-05T15:41:03.016Z,7.50
2022-08-05T15:42:53.705Z,8.68
2022-08-05T15:45:15.998Z,6.85
2022-08-05T15:47:43.657Z,8.32
2022-08-05T15:50:15.171Z,9.40
2022-08-05T15:52:53.872Z,8.45
2022-08-05T15:55:24.603Z,6.35
2022-08-05T15:57:52.430Z,9.38
2022-08-05T16:00:26.229Z,8.25
2022-08-05T16:02:59.999Z,7.03
2022-08-05T16:05:28.276Z,6.07
2022-08-05T16:07:55.718Z,7.82
2022-08-05T16:10:25.522Z,9.48
2022-08-05T16:12:56.208Z,8.27
2022-08-05T16:15:23.956Z,6.15
2022-08-05T16:17:57.486Z,9.30
2022-08-05T16:20:24.762Z,7.72
2022-08-05T16:22:51.900Z,8.75
2022-08-05T16:25:19.039Z,6.47
2022-08-05T16:28:00.236Z,7.43
2022-08-05T16:30:30.810Z,7.32
2022-08-05T16:32:59.538Z,7.70
2022-08-05T16:35:28.332Z,7.00
2022-08-05T16:38:16.076Z,8.90
2022-08-05T16:40:51.731Z,7.28
2022-08-05T16:43:25.379Z,9.40
2022-08-05T16:46:06.452Z,8.48
2022-08-05T16:48:36.076Z,9.48
2022-08-05T16:51:03.927Z,9.73
2022-08-05T16:54:06.229Z,7.38
2022-08-05T16:56:25.080Z,9.73
2022-08-05T16:58:52.207Z,7.50
2022-08-05T17:01:19.770Z,9.77
2022-08-05T17:03:47.979Z,12.20
2022-08-05T17:06:16.358Z,8.35
2022-08-05T17:08:52.740Z,9.13
2022-08-05T17:11:23.843Z,8.27
2022-08-05T17:14:00.420Z,8.07
2022-08-05T17:16:36.658Z,7.63
2022-08-05T17:19:07.437Z,8.57
2022-08-05T17:21:37.172Z,9.18
2022-08-05T17:24:30.146Z,9.20
2022-08-05T17:26:57.324Z,8.77
2022-08-05T17:29:39.865Z,8.27
2022-08-05T17:32:11.898Z,9.30
2022-08-05T17:34:47.583Z,13.02
2022-08-05T17:37:32.157Z,11.55
2022-08-05T17:40:03.521Z,11.77
2022-08-05T17:42:32.289Z,11.52
2022-08-05T17:45:18.223Z,10.35
2022-08-05T17:47:52.961Z,9.35
2022-08-05T17:50:28.420Z,11.43
2022-08-05T17:52:58.901Z,13.57
2022-08-05T17:55:34.363Z,12.23
2022-08-05T17:58:05.761Z,12.55
2022-08-05T18:00:34.613Z,14.70
2022-08-05T18:03:02.709Z,10.27
2022-08-05T18:05:35.459Z,11.55
2022-08-05T18:08:03.499Z,12.30
2022-08-05T18:10:33.405Z,12.35
2022-08-05T18:13:01.984Z,11.02
2022-08-05T18:15:38.666Z,12.05
2022-08-05T18:18:11.070Z,11.55
2022-08-05T18:20:38.850Z,10.73
2022-08-05T18:23:09.036Z,11.07
2022-08-05T18:25:38.751Z,10.75
2022-08-05T18:28:06.595Z,9.02
2022-08-05T18:30:34.118Z,10.90
2022-08-05T18:33:01.751Z,9.13
2022-08-05T18:35:59.993Z,8.70
2022-08-05T18:38:25.976Z,10.27
2022-08-05T18:41:55.014Z,9.18
2022-08-05T18:43:43.118Z,10.55
2022-08-05T18:46:19.924Z,11.75
2022-08-05T18:48:48.061Z,10.43
2022-08-05T18:52:05.516Z,8.70
2022-08-05T18:54:25.505Z,8.20
2022-08-05T18:56:52.651Z,7.78
2022-08-05T18:59:42.666Z,8.70
2022-08-05T19:02:27.078Z,9.18
2022-08-05T19:05:01.699Z,9.75
2022-08-05T19:07:46.310Z,8.52
2022-08-05T19:10:14.217Z,8.70
2022-08-05T19:12:41.434Z,8.32
2022-08-05T19:15:10.608Z,7.53
2022-08-05T19:18:08.617Z,23.30
2022-08-05T19:20:37.093Z,30.13
2022-08-05T19:24:03.292Z,19.55
2022-08-05T19:26:02.001Z,18.70
2022-08-05T19:28:30.759Z,13.52
2022-08-05T19:30:58.028Z,14.82
2022-08-05T19:33:35.163Z,11.15
2022-08-05T19:36:06.323Z,11.70
2022-08-05T19:38:34.069Z,8.90
2022-08-05T19:41:02.912Z,15.00
2022-08-05T19:44:06.046Z,11.97
2022-08-05T19:46:29.017Z,9.53
2022-08-05T19:48:57.952Z,10.40
2022-08-05T19:52:08.391Z,11.87
2022-08-05T19:54:26.813Z,8.17
2022-08-05T19:56:58.859Z,8.53
2022-08-05T19:59:55.577Z,12.77
2022-08-05T20:02:14.509Z,11.43
2022-08-05T20:04:43.258Z,10.40
2022-08-05T20:07:13.887Z,8.03
2022-08-05T20:09:55.170Z,8.07
2022-08-05T20:12:24.923Z,7.57
2022-08-05T20:14:53.134Z,6.07
2022-08-05T20:17:24.051Z,10.87
2022-08-05T20:19:57.391Z,8.57
2022-08-05T20:22:27.117Z,10.67
2022-08-05T20:24:55.376Z,8.97
2022-08-05T20:27:26.932Z,9.20
2022-08-05T20:29:58.247Z,6.07
2022-08-05T20:32:26.955Z,5.07
2022-08-05T20:34:54.567Z,8.30
2022-08-05T20:38:04.909Z,6.07
2022-08-05T20:40:09.404Z,8.07
2022-08-05T20:42:36.676Z,11.17
2022-08-05T20:45:04.492Z,10.00
2022-08-05T20:47:32.751Z,7.63
2022-08-05T20:50:01.964Z,7.27
2022-08-05T20:52:29.907Z,6.40
2022-08-05T20:55:54.270Z,8.83
2022-08-05T20:57:45.125Z,10.07
2022-08-05T21:00:41.176Z,5.90
2022-08-05T21:03:07.100Z,7.20
2022-08-05T21:05:47.655Z,8.17
2022-08-05T21:08:21.322Z,9.10
2022-08-05T21:10:55.549Z,6.37
2022-08-05T21:13:41.298Z,9.80
2022-08-05T21:16:12.943Z,6.23
2022-08-05T21:18:44.983Z,12.20
2022-08-05T21:21:12.538Z,5.70
2022-08-05T21:23:39.693Z,5.77
2022-08-05T21:26:08.276Z,5.27
2022-08-05T21:28:50.516Z,5.03
2022-08-05T21:31:18.251Z,8.40
2022-08-05T21:33:47.535Z,6.33
2022-08-05T21:36:19.097Z,8.13
2022-08-05T21:38:55.117Z,6.23
2022-08-05T21:41:22.418Z,5.77
2022-08-05T21:44:01.251Z,7.63
2022-08-05T21:46:30.544Z,6.37
2022-08-05T21:48:59.767Z,5.10
2022-08-05T21:52:15.781Z,5.13
2022-08-05T21:54:14.991Z,5.67
2022-08-05T21:56:44.354Z,7.10
2022-08-05T21:59:22.549Z,6.37
2022-08-05T22:01:51.264Z,7.00
2022-08-05T22:04:25.244Z,7.13
2022-08-05T22:06:52.933Z,5.57
2022-08-05T22:09:21.133Z,9.63
2022-08-05T22:11:49.493Z,6.37
2022-08-05T22:14:33.778Z,5.70
2022-08-05T22:17:05.140Z,4.83
2022-08-05T22:20:00.190Z,7.03
2022-08-05T22:22:27.615Z,5.23
2022-08-05T22:25:18.249Z,6.50
2022-08-05T22:28:08.826Z,4.20
2022-08-05T22:30:56.500Z,5.17
2022-08-05T22:33:56.326Z,5.87
2022-08-05T22:36:14.287Z,5.50
2022-08-05T22:38:42.603Z,7.17
2022-08-05T22:41:10.169Z,5.53
2022-08-05T22:43:38.182Z,6.63
2022-08-05T22:46:13.140Z,6.73
2022-08-05T22:48:41.323Z,7.50
2022-08-05T22:51:08.749Z,7.70
2022-08-05T22:53:43.342Z,7.10
2022-08-05T22:56:17.207Z,5.13
2022-08-05T22:58:57.124Z,7.63
2022-08-05T23:01:24.273Z,5.80
2022-08-05T23:04:11.516Z,4.30
2022-08-05T23:06:38.668Z,5.27
2022-08-05T23:09:27.212Z,5.23
2022-08-05T23:11:53.155Z,5.80
2022-08-05T23:14:22.709Z,7.63
2022-08-05T23:17:18.578Z,7.80
2022-08-05T23:19:56.065Z,4.43
2022-08-05T23:22:27.388Z,6.57
2022-08-05T23:24:55.269Z,6.73
2022-08-05T23:27:22.853Z,5.17
2022-08-05T23:29:51.389Z,5.97
2022-08-05T23:32:23.088Z,6.60
2022-08-05T23:34:50.882Z,7.17
2022-08-05T23:37:18.202Z,5.30
2022-08-05T23:39:54.163Z,6.63
2022-08-05T23:42:23.492Z,5.83
2022-08-05T23:44:56.316Z,5.03
2022-08-05T23:47:24.927Z,6.03
2022-08-05T23:49:55.839Z,5.23
2022-08-05T23:52:26.778Z,6.53
2022-08-05T23:54:55.454Z,6.23
2022-08-05T23:57:23.113Z,7.03
